createdAt,value
2019-05-17T00:01:03.713Z,10.80
2019-05-17T00:03:30.936Z,10.70
2019-05-17T00:05:58.145Z,10.70
2019-05-17T00:08:33.883Z,10.70
2019-05-17T00:10:56.944Z,10.70
2019-05-17T00:13:23.673Z,11.00
2019-05-17T00:15:51.431Z,10.70
2019-05-17T00:18:18.734Z,10.70
2019-05-17T00:20:46.568Z,10.80
2019-05-17T00:23:14.136Z,11.00
2019-05-17T00:25:41.357Z,10.70
2019-05-17T00:28:08.619Z,10.70
2019-05-17T00:30:37.277Z,10.80
2019-05-17T00:33:07.486Z,10.70
2019-05-17T00:35:34.071Z,10.50
2019-05-17T00:38:01.399Z,10.70
2019-05-17T00:40:28.623Z,10.70
2019-05-17T00:42:57.064Z,10.80
2019-05-17T00:45:26.582Z,10.70
2019-05-17T00:47:53.687Z,10.80
2019-05-17T00:50:20.924Z,10.80
2019-05-17T00:52:48.201Z,10.80
2019-05-17T00:55:17.582Z,10.70
2019-05-17T00:57:47.229Z,10.80
2019-05-17T01:00:13.971Z,10.80
2019-05-17T01:02:41.204Z,10.80
2019-05-17T01:05:08.629Z,10.80
2019-05-17T01:07:37.718Z,10.60
2019-05-17T01:10:07.303Z,10.80
2019-05-17T01:12:36.489Z,10.70
2019-05-17T01:15:04.792Z,10.70
2019-05-17T01:17:32.042Z,10.70
2019-05-17T01:19:59.331Z,10.80
2019-05-17T01:22:26.621Z,10.70
2019-05-17T01:24:53.856Z,10.80
2019-05-17T01:27:21.076Z,10.80
2019-05-17T01:29:48.295Z,10.80
2019-05-17T01:32:17.176Z,10.80
2019-05-17T01:34:46.791Z,10.80
2019-05-17T01:37:13.892Z,10.80
2019-05-17T01:39:41.495Z,10.80
2019-05-17T01:42:08.818Z,10.80
2019-05-17T01:44:36.725Z,10.80
2019-05-17T01:47:04.177Z,10.90
2019-05-17T01:49:31.436Z,10.80
2019-05-17T01:51:58.808Z,10.80
2019-05-17T01:54:26.864Z,10.80
2019-05-17T01:56:56.525Z,10.70
2019-05-17T01:59:23.485Z,10.70
2019-05-17T02:01:52.988Z,10.60
2019-05-17T02:04:20.678Z,10.50
2019-05-17T02:06:48.399Z,10.70
2019-05-17T02:09:32.234Z,10.60
2019-05-17T02:11:46.657Z,10.70
2019-05-17T02:14:16.600Z,10.70
2019-05-17T02:16:46.614Z,10.50
2019-05-17T02:19:13.897Z,10.50
2019-05-17T02:21:41.194Z,10.60
2019-05-17T02:24:08.463Z,10.60
2019-05-17T02:26:37.481Z,10.50
2019-05-17T02:29:04.798Z,10.50
2019-05-17T02:31:33.060Z,10.50
2019-05-17T02:34:03.058Z,10.60
2019-05-17T02:36:33.038Z,10.50
2019-05-17T02:38:58.774Z,10.50
2019-05-17T02:41:26.015Z,10.50
2019-05-17T02:43:53.540Z,10.60
2019-05-17T02:46:23.093Z,10.60
2019-05-17T02:48:53.578Z,10.60
2019-05-17T02:51:19.274Z,10.60
2019-05-17T02:53:46.509Z,10.50
2019-05-17T02:56:13.831Z,10.40
2019-05-17T02:58:43.935Z,10.50
2019-05-17T03:01:12.693Z,10.60
2019-05-17T03:03:39.412Z,10.50
2019-05-17T03:06:06.628Z,10.60
2019-05-17T03:08:34.455Z,10.50
2019-05-17T03:11:03.225Z,10.50
2019-05-17T03:13:32.928Z,10.50
2019-05-17T03:16:03.058Z,10.50
2019-05-17T03:18:29.200Z,10.50
2019-05-17T03:20:56.492Z,10.40
2019-05-17T03:23:23.775Z,10.40
2019-05-17T03:25:52.487Z,10.40
2019-05-17T03:28:23.255Z,10.40
2019-05-17T03:30:49.241Z,10.60
2019-05-17T03:33:18.227Z,10.30
2019-05-17T03:35:46.471Z,10.40
2019-05-17T03:38:14.276Z,10.40
2019-05-17T03:41:07.466Z,10.40
2019-05-17T03:43:13.827Z,10.60
2019-05-17T03:45:42.610Z,10.40
2019-05-17T03:48:09.224Z,10.60
2019-05-17T03:50:36.437Z,10.50
2019-05-17T03:53:03.773Z,10.20
2019-05-17T03:55:33.255Z,10.20
2019-05-17T03:58:03.328Z,10.20
2019-05-17T04:00:29.319Z,10.20
2019-05-17T04:02:56.556Z,10.20
2019-05-17T04:05:23.900Z,10.30
2019-05-17T04:07:53.714Z,10.30
2019-05-17T04:10:22.805Z,10.30
2019-05-17T04:12:52.719Z,10.30
2019-05-17T04:15:18.799Z,10.30
2019-05-17T04:17:46.024Z,10.50
2019-05-17T04:20:13.866Z,10.40
2019-05-17T04:22:44.335Z,10.50
2019-05-17T04:25:13.464Z,10.40
2019-05-17T04:27:43.209Z,10.40
2019-05-17T04:30:12.340Z,10.40
2019-05-17T04:32:38.251Z,10.50
2019-05-17T04:35:05.470Z,10.40
2019-05-17T04:37:33.976Z,10.40
2019-05-17T04:40:03.449Z,10.40
2019-05-17T04:42:33.158Z,10.40
2019-05-17T04:45:03.318Z,10.50
2019-05-17T04:47:29.369Z,10.50
2019-05-17T04:49:56.584Z,10.50
2019-05-17T04:52:23.874Z,10.50
2019-05-17T04:54:53.622Z,10.50
2019-05-17T04:57:22.942Z,10.60
2019-05-17T04:59:52.193Z,10.50
2019-05-17T05:02:18.713Z,10.50
2019-05-17T05:04:45.952Z,10.50
2019-05-17T05:07:13.867Z,10.40
2019-05-17T05:09:42.942Z,10.50
2019-05-17T05:12:12.438Z,10.60
2019-05-17T05:14:39.847Z,10.60
2019-05-17T05:17:07.111Z,10.60
2019-05-17T05:19:34.433Z,10.50
2019-05-17T05:22:04.547Z,10.70
2019-05-17T05:24:31.521Z,10.60
2019-05-17T05:26:59.091Z,10.70
2019-05-17T05:29:26.769Z,10.70
2019-05-17T05:31:54.007Z,10.80
2019-05-17T05:34:21.595Z,10.80
2019-05-17T05:36:49.123Z,10.90
2019-05-17T05:39:16.354Z,11.00
2019-05-17T05:41:43.642Z,11.00
2019-05-17T05:44:12.214Z,11.00
2019-05-17T05:46:41.995Z,10.90
2019-05-17T05:49:08.966Z,11.00
2019-05-17T05:51:36.214Z,11.10
2019-05-17T05:54:03.455Z,11.00
2019-05-17T05:56:32.617Z,10.90
2019-05-17T05:58:59.812Z,10.90
2019-05-17T06:01:27.098Z,10.90
2019-05-17T06:03:54.409Z,10.90
2019-05-17T06:06:21.685Z,11.00
2019-05-17T06:08:48.995Z,11.00
2019-05-17T06:11:16.220Z,11.00
2019-05-17T06:13:43.472Z,11.10
2019-05-17T06:16:12.003Z,11.10
2019-05-17T06:18:39.485Z,11.00
2019-05-17T06:21:06.799Z,11.00
2019-05-17T06:23:34.071Z,11.10
2019-05-17T06:26:03.871Z,11.10
2019-05-17T06:28:31.923Z,11.10
2019-05-17T06:30:59.622Z,11.00
2019-05-17T06:33:30.928Z,11.20
2019-05-17T06:35:56.064Z,11.30
2019-05-17T06:38:23.675Z,11.10
2019-05-17T06:40:52.330Z,11.10
2019-05-17T06:43:21.484Z,11.10
2019-05-17T06:45:49.037Z,11.20
2019-05-17T06:48:23.892Z,11.30
2019-05-17T06:50:52.403Z,11.40
2019-05-17T06:53:21.765Z,11.50
2019-05-17T06:55:48.931Z,11.50
2019-05-17T06:58:16.146Z,11.50
2019-05-17T07:00:43.436Z,11.60
2019-05-17T07:03:10.669Z,11.50
2019-05-17T07:05:40.380Z,11.40
2019-05-17T07:08:10.741Z,11.40
2019-05-17T07:10:39.613Z,11.40
2019-05-17T07:13:06.219Z,11.50
2019-05-17T07:15:43.733Z,11.40
2019-05-17T07:18:02.631Z,11.50
2019-05-17T07:20:30.015Z,11.50
2019-05-17T07:22:59.913Z,11.50
2019-05-17T07:25:26.470Z,11.70
2019-05-17T07:27:53.720Z,11.70
2019-05-17T07:30:21.134Z,11.70
2019-05-17T07:32:49.813Z,11.70
2019-05-17T07:35:19.606Z,11.90
2019-05-17T07:37:46.381Z,12.10
2019-05-17T07:40:14.379Z,12.10
2019-05-17T07:42:41.734Z,12.10
2019-05-17T07:45:10.166Z,12.10
2019-05-17T07:47:40.123Z,12.20
2019-05-17T07:50:07.047Z,12.40
2019-05-17T07:52:34.298Z,12.40
2019-05-17T07:55:02.656Z,12.60
2019-05-17T07:57:30.133Z,12.60
2019-05-17T07:59:59.777Z,12.70
2019-05-17T08:02:26.657Z,12.90
2019-05-17T08:04:53.963Z,12.90
2019-05-17T08:07:21.232Z,13.20
2019-05-17T08:09:50.483Z,13.40
2019-05-17T08:12:19.859Z,13.60
2019-05-17T08:14:46.760Z,13.80
2019-05-17T08:17:13.984Z,13.80
2019-05-17T08:19:41.217Z,14.20
2019-05-17T08:22:09.797Z,14.40
2019-05-17T08:24:37.244Z,14.70
2019-05-17T08:27:04.601Z,14.70
2019-05-17T08:29:31.860Z,14.70
2019-05-17T08:32:00.380Z,15.20
2019-05-17T08:34:29.301Z,15.40
2019-05-17T08:36:56.763Z,15.60
2019-05-17T08:39:23.993Z,15.80
2019-05-17T08:41:51.235Z,15.80
2019-05-17T08:44:19.243Z,16.00
2019-05-17T08:46:46.675Z,16.20
2019-05-17T08:49:13.974Z,16.40
2019-05-17T08:51:41.422Z,16.60
2019-05-17T08:54:10.398Z,16.70
2019-05-17T08:56:40.024Z,17.00
2019-05-17T08:59:09.433Z,17.00
2019-05-17T09:01:38.459Z,17.30
2019-05-17T09:04:05.422Z,17.60
2019-05-17T09:06:32.667Z,17.60
2019-05-17T09:09:00.782Z,17.70
2019-05-17T09:11:30.253Z,18.00
2019-05-17T09:14:01.160Z,17.80
2019-05-17T09:16:26.658Z,17.50
2019-05-17T09:18:53.887Z,17.50
2019-05-17T09:21:21.886Z,17.60
2019-05-17T09:23:50.363Z,17.90
2019-05-17T09:26:19.858Z,17.90
2019-05-17T09:28:47.063Z,18.10
2019-05-17T09:31:14.303Z,18.30
2019-05-17T09:34:01.079Z,18.70
2019-05-17T09:36:30.308Z,18.90
2019-05-17T09:38:57.443Z,19.20
2019-05-17T09:41:24.687Z,19.50
2019-05-17T09:43:51.928Z,19.30
2019-05-17T09:46:19.778Z,19.00
2019-05-17T09:48:47.264Z,18.80
2019-05-17T09:51:14.629Z,18.90
2019-05-17T09:53:41.897Z,19.00
2019-05-17T09:56:09.886Z,19.00
2019-05-17T09:58:39.676Z,18.90
2019-05-17T10:01:09.311Z,19.10
2019-05-17T10:03:35.965Z,18.90
2019-05-17T10:06:03.189Z,18.80
2019-05-17T10:08:30.452Z,18.40
2019-05-17T10:11:05.868Z,17.90
2019-05-17T10:13:26.946Z,17.60
2019-05-17T10:15:54.199Z,17.40
2019-05-17T10:18:21.460Z,17.20
2019-05-17T10:20:50.661Z,16.80
2019-05-17T10:23:19.690Z,16.50
2019-05-17T10:25:47.269Z,16.50
2019-05-17T10:28:14.536Z,16.40
2019-05-17T10:30:41.788Z,16.40
2019-05-17T10:33:09.875Z,16.30
2019-05-17T10:35:40.382Z,16.20
2019-05-17T10:38:07.175Z,16.20
2019-05-17T10:40:34.550Z,16.10
2019-05-17T10:43:01.796Z,16.00
2019-05-17T10:45:30.473Z,16.00
2019-05-17T10:47:57.995Z,16.00
2019-05-17T10:50:25.231Z,15.90
2019-05-17T10:52:52.507Z,15.90
2019-05-17T10:55:20.059Z,16.00
2019-05-17T10:57:49.745Z,15.90
2019-05-17T11:00:19.726Z,16.00
2019-05-17T11:02:46.648Z,16.20
2019-05-17T11:05:14.008Z,16.40
2019-05-17T11:07:41.235Z,16.70
2019-05-17T11:10:11.514Z,17.20
2019-05-17T11:12:38.197Z,17.60
2019-05-17T11:15:11.534Z,17.70
2019-05-17T11:17:35.776Z,17.60
2019-05-17T11:20:04.096Z,17.90
2019-05-17T11:22:31.556Z,18.30
2019-05-17T11:24:59.143Z,18.50
2019-05-17T11:27:26.468Z,18.60
2019-05-17T11:29:53.728Z,18.40
2019-05-17T11:32:21.007Z,18.30
2019-05-17T11:34:48.217Z,18.20
2019-05-17T11:37:15.464Z,18.30
2019-05-17T11:39:42.714Z,18.30
2019-05-17T11:42:09.978Z,18.30
2019-05-17T11:44:37.293Z,18.50
2019-05-17T11:47:04.553Z,19.00
2019-05-17T11:49:31.804Z,20.30
2019-05-17T11:51:59.026Z,21.90
2019-05-17T11:54:26.431Z,23.70
2019-05-17T11:56:53.718Z,25.20
2019-05-17T11:59:20.961Z,26.70
2019-05-17T12:01:48.172Z,27.70
2019-05-17T12:04:15.767Z,28.80
2019-05-17T12:06:43.110Z,29.50
2019-05-17T12:09:10.615Z,29.50
2019-05-17T12:11:38.017Z,28.70
2019-05-17T12:14:05.547Z,29.00
2019-05-17T12:16:33.204Z,29.20
2019-05-17T12:19:01.000Z,29.20
2019-05-17T12:21:28.406Z,28.00
2019-05-17T12:23:56.621Z,28.10
2019-05-17T12:26:23.921Z,28.00
2019-05-17T12:28:51.203Z,27.20
2019-05-17T12:31:18.453Z,26.00
2019-05-17T12:33:45.679Z,24.40
2019-05-17T12:36:12.891Z,23.80
2019-05-17T12:38:40.128Z,23.60
2019-05-17T12:41:12.759Z,25.00
2019-05-17T12:43:39.986Z,26.10
2019-05-17T12:46:09.181Z,27.50
2019-05-17T12:48:36.513Z,28.90
2019-05-17T12:51:03.776Z,29.20
2019-05-17T12:53:31.027Z,29.80
2019-05-17T12:55:58.391Z,29.50
2019-05-17T12:58:25.787Z,27.40
2019-05-17T13:00:53.016Z,25.80
2019-05-17T13:03:20.256Z,24.60
2019-05-17T13:05:50.550Z,23.60
2019-05-17T13:08:17.859Z,23.10
2019-05-17T13:10:45.131Z,22.60
2019-05-17T13:13:12.376Z,21.90
2019-05-17T13:15:42.956Z,21.50
2019-05-17T13:18:10.204Z,21.60
2019-05-17T13:20:37.427Z,21.60
2019-05-17T13:23:04.693Z,21.40
2019-05-17T13:25:32.025Z,21.30
2019-05-17T13:27:59.436Z,20.80
2019-05-17T13:30:26.736Z,20.80
2019-05-17T13:32:53.987Z,21.20
2019-05-17T13:35:23.575Z,21.50
2019-05-17T13:37:50.888Z,22.70
2019-05-17T13:40:19.141Z,23.00
2019-05-17T13:42:46.359Z,22.40
2019-05-17T13:45:16.954Z,22.20
2019-05-17T13:47:46.263Z,22.00
2019-05-17T13:50:15.024Z,22.60
2019-05-17T13:52:46.748Z,23.00
2019-05-17T13:55:14.112Z,22.90
2019-05-17T13:57:42.336Z,23.50
2019-05-17T14:00:13.086Z,24.50
2019-05-17T14:02:40.405Z,24.80
2019-05-17T14:05:08.063Z,24.10
2019-05-17T14:07:35.425Z,23.60
2019-05-17T14:10:03.083Z,23.10
2019-05-17T14:12:30.446Z,22.70
2019-05-17T14:14:57.724Z,22.30
2019-05-17T14:17:24.971Z,21.80
2019-05-17T14:19:52.214Z,22.30
2019-05-17T14:22:22.593Z,23.60
2019-05-17T14:24:49.854Z,24.30
2019-05-17T14:27:17.069Z,25.10
2019-05-17T14:29:44.322Z,25.50
2019-05-17T14:32:11.998Z,26.00
2019-05-17T14:34:39.579Z,26.60
2019-05-17T14:37:07.689Z,26.40
2019-05-17T14:39:35.249Z,26.10
2019-05-17T14:42:02.480Z,26.20
2019-05-17T14:44:29.733Z,26.10
2019-05-17T14:46:56.996Z,25.20
2019-05-17T14:49:24.221Z,24.20
2019-05-17T14:51:51.487Z,23.50
2019-05-17T14:54:19.836Z,23.20
2019-05-17T14:56:47.066Z,23.40
2019-05-17T14:59:14.352Z,23.20
2019-05-17T15:01:41.608Z,23.20
2019-05-17T15:04:08.985Z,23.20
2019-05-17T15:06:36.304Z,23.00
2019-05-17T15:09:05.240Z,22.80
2019-05-17T15:11:32.517Z,22.20
2019-05-17T15:13:59.800Z,22.00
2019-05-17T15:16:27.579Z,21.60
2019-05-17T15:18:54.895Z,21.50
2019-05-17T15:21:22.129Z,21.00
2019-05-17T15:23:49.459Z,20.90
2019-05-17T15:26:16.798Z,20.80
2019-05-17T15:28:44.085Z,20.70
2019-05-17T15:31:11.411Z,20.70
2019-05-17T15:33:38.727Z,20.60
2019-05-17T15:36:06.107Z,20.30
2019-05-17T15:38:33.452Z,20.30
2019-05-17T15:41:01.003Z,20.20
2019-05-17T15:43:47.781Z,20.00
2019-05-17T15:46:15.130Z,19.80
2019-05-17T15:48:42.443Z,19.70
2019-05-17T15:51:09.708Z,19.60
2019-05-17T15:53:37.051Z,19.60
2019-05-17T15:56:04.277Z,19.50
2019-05-17T15:58:31.521Z,19.50
2019-05-17T16:00:58.767Z,19.40
2019-05-17T16:03:25.995Z,19.40
2019-05-17T16:05:53.252Z,19.40
2019-05-17T16:08:20.504Z,19.30
2019-05-17T16:10:47.773Z,19.40
2019-05-17T16:13:15.222Z,19.40
2019-05-17T16:15:42.578Z,19.30
2019-05-17T16:18:09.912Z,19.30
2019-05-17T16:20:37.325Z,19.30
2019-05-17T16:23:04.651Z,19.30
2019-05-17T16:25:33.951Z,19.30
2019-05-17T16:28:03.293Z,19.20
2019-05-17T16:30:30.747Z,19.10
2019-05-17T16:32:58.087Z,19.10
2019-05-17T16:35:25.503Z,19.10
2019-05-17T16:37:52.875Z,19.20
2019-05-17T16:40:20.971Z,19.20
2019-05-17T16:42:48.416Z,19.10
2019-05-17T16:45:17.763Z,19.10
2019-05-17T16:47:45.102Z,19.20
2019-05-17T16:50:12.690Z,19.10
2019-05-17T16:52:40.075Z,19.10
2019-05-17T16:55:07.481Z,19.00
2019-05-17T16:57:39.443Z,19.20
2019-05-17T17:00:26.566Z,19.20
2019-05-17T17:02:54.135Z,19.20
2019-05-17T17:05:21.445Z,19.10
2019-05-17T17:07:49.070Z,19.10
2019-05-17T17:10:16.441Z,19.10
2019-05-17T17:12:43.723Z,19.00
2019-05-17T17:15:11.251Z,18.90
2019-05-17T17:17:38.511Z,18.90
2019-05-17T17:20:05.986Z,18.90
2019-05-17T17:22:35.051Z,18.90
2019-05-17T17:25:02.368Z,19.00
2019-05-17T17:27:30.412Z,18.90
2019-05-17T17:29:57.703Z,18.80
2019-05-17T17:32:24.959Z,18.80
2019-05-17T17:34:52.188Z,18.70
2019-05-17T17:37:19.464Z,18.60
2019-05-17T17:39:46.755Z,18.60
2019-05-17T17:42:13.988Z,18.50
2019-05-17T17:44:41.257Z,18.50
2019-05-17T17:47:08.645Z,18.40
2019-05-17T17:49:35.864Z,18.30
2019-05-17T17:52:03.215Z,18.20
2019-05-17T17:54:30.562Z,18.20
2019-05-17T17:56:57.812Z,18.20
2019-05-17T17:59:25.054Z,18.10
2019-05-17T18:01:52.352Z,18.10
2019-05-17T18:04:19.593Z,18.10
2019-05-17T18:06:46.815Z,18.00
2019-05-17T18:09:14.074Z,18.00
2019-05-17T18:11:41.376Z,18.00
2019-05-17T18:14:13.487Z,18.00
2019-05-17T18:16:37.796Z,17.90
2019-05-17T18:19:05.083Z,17.90
2019-05-17T18:21:32.827Z,17.80
2019-05-17T18:24:00.076Z,17.70
2019-05-17T18:26:27.328Z,17.70
2019-05-17T18:28:54.574Z,17.70
2019-05-17T18:31:21.807Z,17.60
2019-05-17T18:33:49.072Z,17.50
2019-05-17T18:36:16.317Z,17.50
2019-05-17T18:38:47.636Z,17.50
2019-05-17T18:41:14.984Z,17.40
2019-05-17T18:43:42.231Z,17.40
2019-05-17T18:46:09.524Z,17.40
2019-05-17T18:48:36.884Z,17.50
2019-05-17T18:51:04.132Z,17.30
2019-05-17T18:53:31.377Z,17.30
2019-05-17T18:55:58.639Z,17.20
2019-05-17T18:58:25.996Z,17.20
2019-05-17T19:00:53.233Z,17.00
2019-05-17T19:03:20.491Z,17.10
2019-05-17T19:05:47.729Z,17.00
2019-05-17T19:08:14.987Z,16.90
2019-05-17T19:10:42.234Z,17.00
2019-05-17T19:13:09.474Z,16.90
2019-05-17T19:15:36.733Z,16.80
2019-05-17T19:18:03.980Z,16.70
2019-05-17T19:20:50.706Z,16.70
2019-05-17T19:23:17.924Z,16.60
2019-05-17T19:25:45.224Z,16.60
2019-05-17T19:28:12.543Z,16.60
2019-05-17T19:30:39.784Z,16.50
2019-05-17T19:33:07.007Z,16.40
2019-05-17T19:35:34.260Z,16.30
2019-05-17T19:38:01.609Z,16.40
2019-05-17T19:40:28.839Z,16.30
2019-05-17T19:42:56.173Z,16.30
2019-05-17T19:45:23.510Z,16.30
2019-05-17T19:47:50.840Z,16.20
2019-05-17T19:50:18.192Z,16.20
2019-05-17T19:52:45.427Z,16.10
2019-05-17T19:55:13.087Z,16.10
2019-05-17T19:57:40.332Z,16.00
2019-05-17T20:00:08.714Z,16.00
2019-05-17T20:02:35.968Z,16.00
2019-05-17T20:05:03.384Z,16.00
2019-05-17T20:07:37.757Z,15.90
2019-05-17T20:09:59.809Z,15.90
2019-05-17T20:12:27.047Z,15.80
2019-05-17T20:14:54.286Z,15.70
2019-05-17T20:17:21.671Z,15.80
2019-05-17T20:19:48.900Z,15.80
2019-05-17T20:22:16.192Z,15.80
2019-05-17T20:24:43.496Z,15.90
2019-05-17T20:27:10.745Z,15.80
2019-05-17T20:29:37.992Z,15.80
2019-05-17T20:32:05.263Z,15.80
2019-05-17T20:34:32.635Z,15.80
2019-05-17T20:36:59.975Z,15.60
2019-05-17T20:39:28.690Z,15.70
2019-05-17T20:41:57.537Z,15.70
2019-05-17T20:44:25.110Z,15.70
2019-05-17T20:46:52.349Z,15.70
2019-05-17T20:49:19.725Z,15.60
2019-05-17T20:51:47.194Z,15.60
2019-05-17T20:54:14.916Z,15.70
2019-05-17T20:56:42.231Z,15.60
2019-05-17T20:59:09.507Z,15.60
2019-05-17T21:01:36.906Z,15.70
2019-05-17T21:04:04.264Z,15.70
2019-05-17T21:06:31.573Z,15.70
2019-05-17T21:08:58.880Z,15.70
2019-05-17T21:11:26.099Z,15.60
2019-05-17T21:13:53.344Z,15.60
2019-05-17T21:16:20.563Z,15.60
2019-05-17T21:18:47.812Z,15.60
2019-05-17T21:21:15.060Z,15.60
2019-05-17T21:23:42.391Z,15.60
2019-05-17T21:26:09.708Z,15.60
2019-05-17T21:28:36.956Z,15.50
2019-05-17T21:31:04.203Z,15.40
2019-05-17T21:33:31.450Z,15.50
2019-05-17T21:35:58.715Z,15.50
2019-05-17T21:38:25.975Z,15.40
2019-05-17T21:40:53.301Z,15.50
2019-05-17T21:43:20.544Z,15.40
2019-05-17T21:46:02.306Z,15.40
2019-05-17T21:48:16.967Z,15.40
2019-05-17T21:50:44.191Z,15.30
2019-05-17T21:53:11.411Z,15.40
2019-05-17T21:55:38.689Z,15.40
2019-05-17T21:58:05.976Z,15.40
2019-05-17T22:01:10.552Z,15.40
2019-05-17T22:03:37.846Z,15.40
2019-05-17T22:06:05.239Z,15.40
2019-05-17T22:08:32.495Z,15.40
2019-05-17T22:10:59.844Z,15.40
2019-05-17T22:13:27.219Z,15.30
2019-05-17T22:15:54.563Z,15.30
2019-05-17T22:18:21.786Z,15.30
2019-05-17T22:20:49.414Z,15.30
2019-05-17T22:23:16.659Z,15.30
2019-05-17T22:25:43.903Z,15.20
2019-05-17T22:28:11.164Z,15.20
2019-05-17T22:30:38.451Z,15.20
2019-05-17T22:33:05.971Z,15.10
2019-05-17T22:35:33.220Z,15.10
2019-05-17T22:38:00.446Z,15.10
2019-05-17T22:40:27.698Z,15.00
2019-05-17T22:42:54.949Z,15.00
2019-05-17T22:45:22.331Z,14.90
2019-05-17T22:47:49.627Z,14.90
2019-05-17T22:50:16.885Z,14.80
2019-05-17T22:52:44.103Z,14.80
2019-05-17T22:55:11.483Z,14.70
2019-05-17T22:57:38.735Z,14.60
2019-05-17T23:00:06.627Z,14.70
2019-05-17T23:02:33.875Z,14.70
2019-05-17T23:05:01.129Z,14.70
2019-05-17T23:07:28.433Z,14.60
2019-05-17T23:09:55.679Z,14.50
2019-05-17T23:12:22.887Z,14.50
2019-05-17T23:14:50.133Z,14.50
2019-05-17T23:17:17.411Z,14.40
2019-05-17T23:19:44.642Z,14.40
2019-05-17T23:22:11.963Z,14.40
2019-05-17T23:24:39.210Z,14.30
2019-05-17T23:27:06.425Z,14.30
2019-05-17T23:29:33.675Z,14.30
2019-05-17T23:32:01.002Z,14.30
2019-05-17T23:34:28.328Z,14.30
2019-05-17T23:36:55.647Z,14.40
2019-05-17T23:39:22.968Z,14.30
2019-05-17T23:41:50.329Z,14.30
2019-05-17T23:44:17.575Z,14.10
2019-05-17T23:46:44.825Z,14.10
2019-05-17T23:49:12.165Z,14.10
2019-05-17T23:51:39.384Z,14.00
2019-05-17T23:54:06.666Z,14.00
2019-05-17T23:56:33.989Z,14.00
2019-05-17T23:59:01.220Z,14.00
